Terminal Aerodrome Forecast
Issued by NWS

Home | Current Version | Previous Version | Text Only | Print | Product List | Glossary On
Versions: 1 2 3 4 5 6 7 8 9 10 11 12 13 14 15 16
000
FTUS43 KABR 241733
TAFPIR
TAF
KPIR 241733Z 2418/2518 16017KT P6SM SCT250
     FM242200 14013KT P6SM VCTS SCT100CB
     FM250100 13011KT P6SM SCT250=

USA.gov is the U.S. government's official web portal to all federal, state and local government web resources and services.